Nearby METAR Reports

 

ENTO - Torp (civ/Nor-Af, Norway
Distance from station: NNØ 26km
Oppdatert: 19/06/2018 11:50
Klart
Klart
 Vind fra VSV
Vind: VSV 20 km/h, Vindkast: 39 km/h
Temperatur: 18°C
Duggpunkt: 4°C
Fuktighet: 40%
Barometer: 1006 hPa
Oversikt: Klart
Visibility: greater than 10 km
2018/06/19 09:50 ENTO 190950Z 25011G21KT 220V280 CAVOK 18/04 Q1006
ENSN - Skien/Geiteryggen, Norway
Distance from station: NV 31km
Oppdatert: 09/11/2015 09:50
NOT Current
Klart
Klart
 Vind fra SSV
Vind: SSV 19 km/h, Vindkast: 41 km/h
Temperatur: 7°C
Wind Chill: 4°C
Duggpunkt: 3°C
Fuktighet: 76%
Barometer: 1000 hPa
Oversikt: Klart
Visibility: greater than 10 km
2015/11/09 08:50 ENSN 090850Z 20010G22KT 150V240 CAVOK 07/03 Q1000